Hidden Valley, Valles Caldera, New Mexico Weather observations

Data are for 10 minute period ending at time listed.
 Day   Time   Solar   Ave.   Ave.  Ave.  Vector  Max.   Baro.   Total    
  of    of     Rad.   Air    Rel.  Wind   Wind   Wind  Press.  Precip.   
Year   Day            Temp.  Hum.  Speed  Dir.   Gust                    
2017   (MST)  Kw/m2    F      %     mph   deg.    mph    mb.     in.     
-------------------------------------------------------------------------
  53   17:30   0.01   38.8    65    0.4    65     1.2   740.9    0.00 
  53   17:40   0.00   38.3    67    0.7   173     1.6   740.9    0.00 
  53   17:50   0.00   38.5    63    1.1   319     2.6   740.8    0.00 
  53   18:00   0.00   39.3    58    0.8   202     2.5   740.6    0.00 
  53   18:10   0.00   38.1    62    0.6   325     1.9   740.7    0.00 
  53   18:20   0.00   37.9    62    1.0   335     1.8   740.7    0.00 
  53   18:30   0.00   38.7    61    0.8    45     2.1   740.8    0.00 
  53   18:40   0.00   40.0    58    0.8   248     2.7   740.8    0.00 
  53   18:50   0.00   41.5    53    1.7   157     4.1   740.6    0.00 
  53   19:00   0.00   42.0    52    1.9   171     5.1   740.6    0.00 
  53   19:10   0.00   41.6    53    1.5   221     5.0   740.7    0.00 
  53   19:20   0.00   41.4    55    2.3   206     5.7   740.6    0.00 
  53   19:30   0.00   40.8    58    2.3   211     6.6   740.6    0.00 
  53   19:40   0.00   40.5    58    3.0   208     8.8   740.5    0.00 
  53   19:50   0.00   39.8    59    3.0   196     6.3   740.5    0.00 
  53   20:00   0.00   39.4    60    1.5   195     3.6   740.4    0.00 
  53   20:10   0.00   39.5    56    2.4   194     8.3   740.2    0.00 
  53   20:20   0.00   39.2    53    2.5   186     4.3   740.2    0.00 
  53   20:30   0.00   39.2    51    1.4   134     3.0   740.1    0.00 
  53   20:40   0.00   38.8    50    1.2   154     3.5   740.0    0.00 
  53   20:50   0.00   39.0    48    1.5   115     3.2   740.1    0.00 
  53   21:00   0.00   39.0    48    2.2   153     4.1   740.0    0.00 
  53   21:10   0.00   38.9    49    1.5   128     3.4   740.0    0.00 
  53   21:20   0.00   38.9    49    1.8   165     4.9   740.0    0.00 
  53   21:30   0.00   38.6    49    2.0   265     5.4   739.8    0.00 
  53   21:40   0.00   38.6    49    1.9   226     5.6   739.6    0.00 
  53   21:50   0.00   38.4    50    2.8   153     6.5   739.4    0.00 
  53   22:00   0.00   38.3    50    2.6   202     5.3   739.3    0.00 
  53   22:10   0.00   38.1    51    2.3   206     5.3   739.1    0.00 
  53   22:20   0.00   38.0    51    3.2   173     6.0   738.8    0.00 
  53   22:30   0.00   37.8    51    1.6   171     4.3   738.7    0.00 
  53   22:40   0.00   37.9    49    1.2   180     2.8   738.6    0.00 
  53   22:50   0.00   37.9    49    1.4    33     3.4   738.4    0.00 
  53   23:00   0.00   38.2    47    1.8   267     6.3   738.3    0.00 
  53   23:10   0.00   39.2    42    2.3   193     5.6   738.1    0.01 
  53   23:20   0.00   39.1    43    2.5   201     5.5   737.9    0.01 
  53   23:30   0.00   39.1    43    3.1   190     6.6   737.8    0.00 
  53   23:40   0.00   39.0    45    3.8   202     9.9   737.5    0.00 
  53   23:50   0.00   39.2    46    6.3   201    11.5   737.4    0.00 
  54    0:00   0.00   39.1    48    6.7   203    11.8   737.2    0.00 
  54    0:10   0.00   39.0    51    6.2   202    11.0   737.1    0.00 
  54    0:20   0.00   38.7    53    5.5   202    10.2   737.1    0.00 
  54    0:30   0.00   38.5    55    5.3   204     9.7   737.0    0.00 
  54    0:40   0.00   38.2    56    4.3   203     9.2   736.9    0.00 
  54    0:50   0.00   38.1    56    5.6   207    10.8   736.8    0.00 
  54    1:00   0.00   37.6    57    3.2   208     7.7   736.5    0.00 
  54    1:10   0.00   37.3    57    3.0   211     6.8   736.3    0.00 
  54    1:20   0.00   36.9    57    1.4   240     3.8   736.2    0.00 
  54    1:30   0.00   36.9    56    1.4   277     3.7   736.1    0.00 
  54    1:40   0.00   36.6    55    1.5   234     3.9   736.0    0.00 
  54    1:50   0.00   36.4    55    2.1   211     4.9   735.8    0.00 
  54    2:00   0.00   36.0    55    2.8   208     6.2   735.6    0.00 
  54    2:10   0.00   36.0    53    3.0   194     6.0   735.4    0.00 
  54    2:20   0.00   35.1    54    2.2   234     4.5   735.2    0.00 
  54    2:30   0.00   36.7    49    5.1   206     9.5   734.9    0.00 
  54    2:40   0.00   37.2    48    5.5   199     9.5   734.6    0.00 
  54    2:50   0.00   37.1    49    5.3   206    10.1   734.5    0.00 
  54    3:00   0.00   37.2    49    5.8   208    10.7   734.4    0.00 
  54    3:10   0.00   37.0    49    5.5   207     9.4   734.3    0.00 
  54    3:20   0.00   36.8    50    4.9   215     8.7   734.2    0.00 
  54    3:30   0.00   36.6    50    5.1   210     9.2   734.0    0.00 
  54    3:40   0.00   36.4    50    4.1   217     7.3   733.9    0.00 
  54    3:50   0.00   36.0    52    3.2   213     6.1   733.7    0.00 
  54    4:00   0.00   35.9    52    4.4   214     7.2   733.6    0.00 
  54    4:10   0.00   35.6    52    3.2   226     5.9   733.4    0.00 
  54    4:20   0.00   34.8    53    1.8   233     4.2   733.4    0.00 
  54    4:30   0.00   35.0    51    2.0   215     5.9   733.3    0.00 
  54    4:40   0.00   34.7    51    2.3   200     5.4   733.3    0.00 
  54    4:50   0.00   34.4    51    2.6   214     5.2   733.1    0.00 
  54    5:00   0.00   34.0    51    1.6   230     3.6   733.2    0.00 
  54    5:10   0.00   34.2    50    1.3   177     3.7   733.1    0.00 
  54    5:20   0.00   34.0    50    1.4   207     6.2   733.0    0.00 
  54    5:30   0.00   34.2    49    3.1   206     6.8   732.9    0.00 
  54    5:40   0.00   33.4    50    2.1   214     4.7   732.8    0.00 
  54    5:50   0.00   33.5    49    2.0   219     5.1   732.7    0.00 
  54    6:00   0.00   33.6    48    2.6   206     6.2   732.7    0.00 
  54    6:10   0.00   33.2    50    3.2   197     7.2   732.5    0.00 
  54    6:20   0.00   33.2    50    3.5   210     8.1   732.5    0.00 
  54    6:30   0.00   33.3    51    4.6   209    10.2   732.5    0.00 
  54    6:40   0.00   33.4    52    3.9   205     7.5   732.4    0.00 
  54    6:50   0.01   33.3    53    5.2   208     9.1   732.4    0.00 
  54    7:00   0.02   33.3    54    4.1   203    10.4   732.4    0.00 
  54    7:10   0.02   33.2    56    4.5   210    11.5   732.5    0.00 
  54    7:20   0.03   33.1    59    6.2   217    14.1   732.5    0.00 
  54    7:30   0.04   33.0    58    5.6   215    11.4   732.7    0.00 
  54    7:40   0.09   32.6    57    4.7   224    11.9   732.8    0.00 
  54    7:50   0.09   32.4    60    4.9   218    10.0   732.9    0.00 
  54    8:00   0.08   31.8    59    5.2   229    12.7   733.1    0.00 
  54    8:10   0.14   31.6    60    4.3   216     8.8   733.0    0.00 
  54    8:20   0.08   31.2    62    4.8   220    10.4   733.0    0.00 
  54    8:30   0.08   31.0    63    2.3   234     7.3   733.1    0.00 
  54    8:40   0.10   30.3    62    4.5   222     7.8   733.3    0.00 
  54    8:50   0.14   29.9    57    4.7   212     9.4   733.3    0.00 
  54    9:00   0.45   30.5    56    5.1   205    15.3   733.2    0.00 
  54    9:10   0.13   30.1    59    5.7   207    12.2   733.1    0.00 
  54    9:20   0.13   29.2    65    3.7   261     9.1   733.5    0.00 
  54    9:30   0.15   27.0    73    4.2   284    10.1   733.7    0.00 
  54    9:40   0.14   26.7    71    2.3   333     8.0   733.7    0.00 
  54    9:50   0.14   26.4    68    2.9   178     6.4   733.8    0.00 
  54   10:00   0.16   26.6    64    3.6   200     6.9   733.9    0.00 
  54   10:10   0.21   26.7    59    3.8   200     8.1   733.9    0.00 
  54   10:20   0.39   27.4    56    4.7   201    10.3   733.9    0.00 
  54   10:30   0.50   27.9    52    5.9   217    11.8   733.9    0.00 
  54   10:40   0.71   29.2    45    6.4   214    19.6   733.9    0.00 
  54   10:50   0.59   29.4    44    4.7   234    10.5   734.0    0.00 
  54   11:00   0.71   29.4    44    5.2   233    11.6   734.0    0.00 
  54   11:10   0.61   29.3    45    3.8   234     8.8   733.9    0.00 
  54   11:20   0.77   29.4    44    4.5   244    10.2   733.9    0.00 
  54   11:30   0.64   28.7    45    5.2   229    14.1   733.9    0.00 
  54   11:40   0.77   28.8    44    8.0   211    17.0   733.7    0.00 
  54   11:50   0.84   29.1    43    8.3   204    17.3   733.6    0.00 
  54   12:00   0.54   29.4    43    4.0   222     9.3   733.5    0.00 
  54   12:10   0.69   29.6    41    3.3   273    10.1   733.3    0.00 
  54   12:20   0.84   30.7    40    6.7   222    12.3   733.2    0.00 
  54   12:30   0.90   30.4    39    7.7   210    15.3   733.0    0.00 
  54   12:40   0.78   31.3    41    4.6   232    10.5   732.9    0.00 
  54   12:50   0.66   31.1    43    5.2   220    12.6   732.9    0.00 
  54   13:00   0.38   29.4    43    5.8   224    13.5   732.9    0.00 
  54   13:10   0.62   29.5    43    4.4   229    11.2   732.9    0.00 
  54   13:20   0.98   31.8    38    4.4   216    11.3   732.7    0.00 
  54   13:30   0.76   32.3    37    3.3   216     7.9   732.5    0.00 
  54   13:40   0.78   32.3    36    4.6   229    10.4   732.4    0.00 
  54   13:50   0.77   31.7    34    6.9   212    13.8   732.5    0.00 
  54   14:00   0.74   31.6    35    6.8   211    14.0   732.4    0.00 
  54   14:10   0.70   31.9    33    5.2   247    14.7   732.5    0.00 
  54   14:20   0.69   31.9    33    6.1   217    13.8   732.5    0.00 
  54   14:30   0.67   31.9    34    6.5   218    12.5   732.4    0.00 
  54   14:40   0.62   31.9    32    5.1   238    10.3   732.5    0.00 
  54   14:50   0.53   31.7    32    3.7   257    10.5   732.6    0.00 
  54   15:00   0.56   32.2    32    5.5   221    11.8   732.6    0.00 
  54   15:10   0.34   31.2    33    4.7   221     9.5   732.7    0.00 
  54   15:20   0.58   31.3    32    5.1   246    10.1   732.8    0.00 
  54   15:30   0.23   30.9    34    3.8   241     8.0   732.7    0.00 
  54   15:40   0.39   31.8    33    2.9   219    12.9   732.7    0.00 
  54   15:50   0.26   31.0    32    4.2   256     9.4   732.9    0.00 
  54   16:00   0.22   29.9    33    3.3   252     7.3   732.9    0.00 
  54   16:10   0.16   30.1    34    4.8   211    11.6   732.9    0.00 
  54   16:20   0.12   30.0    34    3.2   236     7.1   733.0    0.00 
  54   16:30   0.32   30.5    33    3.7   230    10.8   733.0    0.00 
  54   16:40   0.09   30.3    34    4.0   229    10.5   733.2    0.00 
  54   16:50   0.25   30.2    32    3.7   246     9.2   733.4    0.00 
  54   17:00   0.17   30.5    32    3.7   250    13.2   733.3    0.00 
  54   17:10   0.08   29.6    33    3.2   263     7.2   733.4    0.00 
  54   17:20   0.04   29.0    34    2.8   302     6.3   733.5    0.00 

Return to Hidden Valley, Valles Caldera graphs page.


Western Regional Climate Center,wrcc@dri.edu